Cape Newenham LRRS, AK

6:50 PM AKDT on July 05, 2015 (GMT -0800)
Cape Newenham | | Change Station
CLOSE
Current Station
Airport
Location: Cape Newenham,
Elevation: 538 ft
Nearby Weather Stations

Elev 538 ft 58.65 °N, 162.06 °W | Updated 4 days ago

Partly Cloudy
Partly Cloudy
61 °F
Feels Like 61 °F
N
26
Wind Variable Wind from ESE
Gusts 36 mph

Today
High -- | Low -- °F
--% Chance of Precip.
Yesterday
High -- | Low -- °F
Precip. -- in
5:48 AM 11:56 PM
Waning Gibbous, 80% visible
Pressure 30.19 in
Visibility 10.0 miles
Clouds Scattered Clouds 18000 ft
Dew Point 55 °F
Humidity 81%
Rainfall 0.00 in
Snow Depth Not available.
UV 3 out of 12
Pollen Not available.
Air Quality Not available.
Flu Activity Not available.
METAR PAEH 011855Z AUTO 35001KT 10SM SCT180 11/10 A3018 RMK AO2 SLP223 T01110098

More Conditions Fewer Conditions

Pressure 30.19 in
Visibility 10.0 miles
Clouds Scattered Clouds 18000 ft
Dew Point 55 °F
Humidity 81%
Rainfall 0.00 in
Snow Depth Not available.
UV 3 out of 12
Pollen Not available.
Air Quality Not available.
Flu Activity Not available.
METAR PAEH 011855Z AUTO 35001KT 10SM SCT180 11/10 A3018 RMK AO2 SLP223 T01110098

More Conditions Fewer Conditions

10-Day Weather Forecast

×

Almanac

Astronomy

Jul. 05, 2015 Rise Set
Actual Time
Civil Twilight
Nautical Twilight
Astronomical Twilight
Moon
Length of Visible Light
Length of Day
Tomorrow will be .
, % of the Moon is Illuminated

Today's Extremes

State Highs State Lows

Community

WunderPhotos

Upload Photos

1,835,454 photos uploaded!

WunderBlogs® & News

Nearby

Air Quality

  Air Quality AQ Index Pollutant
Not available.

Snow Depth

Station Depth Elevation

Earthquake Activity

City Distance Mag. Time & Date
Minimum magnitude displayed is 2.5.

Coastal Water Temperatures

Place Temperature

Stations

Nearby Weather Stations

Station Location Temp. Windchill Dew Point Humidity Wind Precip. Elev Updated Type